Terminal Aerodrome Forecast
Issued by NWS Hastings, NE

Home | Current Version | Previous Version | Text Only | Print | Product List | Glossary On
Versions: 1 2 3 4 5 6 7 8 9 10 11 12 13 14 15 16 17 18 19 20 21 22 23 24 25 26 27 28 29 30
000
FTUS43 KGID 150543
TAFGRI
TAF
KGRI 150543Z 1506/1606 07008KT P6SM SCT025 BKN040
     FM150900 04008KT P6SM -DZ SCT006 BKN015
     FM151100 36011KT P6SM -DZ OVC006
     FM151500 02011KT P6SM FEW006 BKN025
     FM151800 02011KT P6SM SCT040=

USA.gov is the U.S. government's official web portal to all federal, state and local government web resources and services.